Time;durP1;ratioP1;P1;durP2;ratioP2;P2;SDS_P1;SDS_P2;PMS_P1;PMS_P2;Temp;Humidity;BMP_temperature;BMP_pressure;BME280_temperature;BME280_humidity;BME280_pressure;Samples;Min_cycle;Max_cycle;Signal;HPM_P1;HPM_P2
2022/08/24 00:01:24;;;;;;;9.60;4.05;;;;;;;23.29;44.86;100444.22;1693179;83;21454;-71
2022/08/24 00:03:51;;;;;;;7.90;4.12;;;;;;;23.26;44.68;100454.89;1723468;81;21566;-71
2022/08/24 00:06:20;;;;;;;5.85;3.50;;;;;;;23.23;44.43;100449.06;1732537;81;21939;-72
2022/08/24 00:08:49;;;;;;;5.58;3.65;;;;;;;23.20;44.52;100448.95;1734874;81;20980;-72
2022/08/24 00:11:17;;;;;;;5.42;3.50;;;;;;;23.18;44.63;100449.68;1728916;81;21414;-72
2022/08/24 00:13:44;;;;;;;7.90;3.80;;;;;;;23.16;44.67;100457.11;1736000;81;21010;-72
2022/08/24 00:16:11;;;;;;;8.58;3.83;;;;;;;23.12;44.56;100454.00;1738601;81;20980;-72
2022/08/24 00:18:38;;;;;;;13.38;3.98;;;;;;;23.11;44.54;100450.16;1739823;81;21850;-71
2022/08/24 00:21:05;;;;;;;5.42;3.52;;;;;;;23.10;44.64;100452.55;1735420;81;21087;-71
2022/08/24 00:23:32;;;;;;;6.83;4.10;;;;;;;23.07;44.71;100448.40;1725754;81;20984;-72
2022/08/24 00:25:58;;;;;;;9.13;3.80;;;;;;;23.06;44.83;100453.97;1724555;81;20961;-71
2022/08/24 00:28:25;;;;;;;8.93;3.65;;;;;;;23.04;44.90;100458.20;1744093;80;21077;-72
2022/08/24 00:30:52;;;;;;;7.37;3.50;;;;;;;23.03;44.90;100457.06;1731151;80;21851;-72
2022/08/24 00:33:18;;;;;;;7.05;3.45;;;;;;;23.01;44.88;100455.92;1728211;81;21417;-72
2022/08/24 00:35:45;;;;;;;6.83;4.00;;;;;;;23.00;44.87;100458.31;1741873;81;21004;-72
2022/08/24 00:38:11;;;;;;;6.95;3.65;;;;;;;22.99;44.90;100461.20;1715717;81;21124;-73
2022/08/24 00:40:42;;;;;;;8.80;3.70;;;;;;;22.97;45.08;100462.77;1705236;82;21026;-71
2022/08/24 00:43:09;;;;;;;7.08;3.50;;;;;;;22.94;45.21;100456.92;1662132;84;21844;-71
2022/08/24 00:45:44;;;;;;;6.90;3.42;;;;;;;22.90;45.33;100459.72;1672353;84;20984;-71
2022/08/24 00:48:16;;;;;;;6.20;4.05;;;;;;;22.86;45.50;100459.27;1700232;81;21016;-72
2022/08/24 00:50:48;;;;;;;4.78;3.40;;;;;;;22.82;45.61;100461.50;1731083;81;21063;-71
2022/08/24 00:53:19;;;;;;;8.28;3.50;;;;;;;22.80;45.75;100462.23;1726144;81;21541;-72
2022/08/24 00:55:50;;;;;;;7.47;3.83;;;;;;;22.76;45.85;100466.33;1724357;81;22504;-72
2022/08/24 00:58:24;;;;;;;7.58;3.70;;;;;;;22.73;46.01;100466.73;1726970;81;21458;-70
2022/08/24 01:00:57;;;;;;;10.38;3.90;;;;;;;22.71;46.09;100465.28;1729536;81;21020;-73
2022/08/24 01:03:26;;;;;;;9.28;3.58;;;;;;;22.67;46.11;100464.00;1732663;82;21217;-72
2022/08/24 01:05:55;;;;;;;7.35;3.50;;;;;;;22.63;46.36;100460.88;1732253;81;21029;-72
2022/08/24 01:08:23;;;;;;;11.50;3.58;;;;;;;22.59;46.51;100467.70;1728267;81;21832;-72
2022/08/24 01:10:54;;;;;;;7.28;3.60;;;;;;;22.57;46.51;100472.43;1729823;81;21039;-72
2022/08/24 01:13:21;;;;;;;7.47;3.50;;;;;;;22.55;46.40;100468.59;1729973;81;21006;-72
2022/08/24 01:15:49;;;;;;;8.33;3.50;;;;;;;22.54;46.38;100476.88;1730340;81;21019;-73
2022/08/24 01:21:25;;;;;;;6.85;3.20;;;;;;;22.50;46.48;100469.72;1726314;81;22522;-71
2022/08/24 01:23:54;;;;;;;4.58;3.00;;;;;;;22.46;46.56;100473.81;1673697;84;21039;-72
2022/08/24 01:26:43;;;;;;;8.90;3.70;;;;;;;22.42;46.57;100471.73;1730805;81;21385;-72
2022/08/24 01:29:16;;;;;;;8.90;3.40;;;;;;;22.39;46.73;100470.75;1727402;81;21035;-72
2022/08/24 01:31:43;;;;;;;5.50;3.40;;;;;;;22.37;46.55;100470.13;1727627;81;21480;-72
2022/08/24 01:34:10;;;;;;;7.53;3.67;;;;;;;22.33;46.08;100471.55;1716915;81;22528;-72
2022/08/24 01:36:44;;;;;;;10.55;3.40;;;;;;;22.32;46.09;100471.23;1718454;81;21018;-72
2022/08/24 01:39:19;;;;;;;6.75;3.02;;;;;;;22.32;46.33;100475.28;1685258;83;21358;-71
2022/08/24 01:41:47;;;;;;;8.18;3.30;;;;;;;22.29;46.47;100481.86;1714126;81;20980;-72
2022/08/24 01:44:16;;;;;;;6.83;3.20;;;;;;;22.26;46.68;100479.05;1714419;81;21022;-73
2022/08/24 01:46:52;;;;;;;7.45;3.15;;;;;;;22.25;46.71;100482.77;1718326;81;22541;-71
2022/08/24 01:49:19;;;;;;;6.50;2.98;;;;;;;22.24;46.76;100481.11;1713693;81;20992;-71
2022/08/24 01:51:46;;;;;;;10.03;3.45;;;;;;;22.23;46.90;100478.63;1714785;81;21000;-71
2022/08/24 01:54:13;;;;;;;6.35;3.20;;;;;;;22.20;46.77;100480.37;1718336;81;20964;-70
2022/08/24 01:56:39;;;;;;;7.72;3.20;;;;;;;22.18;46.80;100477.02;1716776;81;20993;-72
2022/08/24 01:59:06;;;;;;;4.87;3.05;;;;;;;22.17;46.82;100480.22;1723765;81;21806;-70
2022/08/24 02:01:37;;;;;;;7.87;3.30;;;;;;;22.14;46.73;100479.79;1693155;83;21058;-70
2022/08/24 02:04:05;;;;;;;9.50;3.20;;;;;;;22.11;46.78;100486.40;1701606;82;21043;-70
2022/08/24 02:06:32;;;;;;;8.78;2.95;;;;;;;22.09;46.74;100479.02;1694114;83;20992;-71
2022/08/24 02:08:59;;;;;;;6.97;3.12;;;;;;;22.09;46.81;100481.70;1691468;83;21000;-71
2022/08/24 02:11:26;;;;;;;8.03;2.85;;;;;;;22.09;46.91;100482.22;1694589;83;21834;-71
2022/08/24 02:13:53;;;;;;;5.03;2.75;;;;;;;22.04;46.80;100482.78;1698099;83;21093;-72
2022/08/24 02:16:20;;;;;;;7.12;3.00;;;;;;;22.00;46.78;100484.17;1688725;83;20974;-72
2022/08/24 02:18:47;;;;;;;6.72;3.30;;;;;;;21.98;46.88;100480.34;1714775;83;21016;-72
2022/08/24 02:21:14;;;;;;;5.65;3.20;;;;;;;21.95;47.06;100486.11;1705393;83;21474;-71
2022/08/24 02:23:40;;;;;;;7.53;3.17;;;;;;;21.94;47.17;100489.00;1720632;82;22777;-71
2022/08/24 02:26:09;;;;;;;5.75;3.40;;;;;;;21.92;47.25;100483.82;1698316;82;21540;-72
2022/08/24 02:28:36;;;;;;;7.28;3.15;;;;;;;21.92;47.20;100482.99;1706152;81;21012;-73
2022/08/24 02:31:04;;;;;;;11.18;3.08;;;;;;;21.89;47.06;100488.73;1704362;82;20971;-72
2022/08/24 02:33:33;;;;;;;5.70;3.08;;;;;;;21.86;46.93;100491.30;1697926;84;20977;-71
2022/08/24 02:36:01;;;;;;;5.53;2.90;;;;;;;21.84;47.09;100498.73;1717738;82;22560;-72
2022/08/24 02:38:29;;;;;;;5.35;2.98;;;;;;;21.82;47.21;100504.82;1715859;82;20972;-72
2022/08/24 02:40:56;;;;;;;6.67;2.90;;;;;;;21.81;47.35;100504.98;1732283;81;21066;-72
2022/08/24 02:43:26;;;;;;;7.80;2.92;;;;;;;21.77;47.37;100501.86;1722132;81;21019;-72
2022/08/24 02:45:54;;;;;;;7.78;3.33;;;;;;;21.76;47.55;100502.06;1730249;81;21164;-71
2022/08/24 02:48:22;;;;;;;11.53;3.20;;;;;;;21.75;47.40;100499.05;1722114;81;22235;-72
2022/08/24 02:50:51;;;;;;;7.00;3.08;;;;;;;21.75;47.31;100508.46;1721443;81;20956;-71
2022/08/24 02:53:19;;;;;;;7.47;3.02;;;;;;;21.70;47.59;100518.42;1722672;81;21019;-72
2022/08/24 02:55:46;;;;;;;6.87;3.20;;;;;;;21.66;47.64;100518.50;1725989;81;20986;-71
2022/08/24 02:58:15;;;;;;;8.28;2.95;;;;;;;21.64;47.70;100517.35;1722099;81;21140;-72
2022/08/24 03:00:45;;;;;;;9.68;3.15;;;;;;;21.64;47.73;100514.66;1727329;81;22682;-72
2022/08/24 03:03:12;;;;;;;5.40;2.95;;;;;;;21.64;47.92;100517.86;1735875;81;20944;-72
2022/08/24 03:05:39;;;;;;;7.70;2.83;;;;;;;21.64;47.73;100517.35;1741265;81;20960;-71
2022/08/24 03:08:06;;;;;;;6.85;2.83;;;;;;;21.64;47.79;100519.21;1723880;83;20987;-71
2022/08/24 03:10:34;;;;;;;5.92;3.02;;;;;;;21.64;47.83;100522.73;1723838;81;21026;-71
2022/08/24 03:13:02;;;;;;;9.43;2.80;;;;;;;21.64;47.86;100517.86;1730683;81;22324;-71
2022/08/24 03:15:30;;;;;;;9.55;2.90;;;;;;;21.63;47.93;100516.20;1731049;81;21002;-71
2022/08/24 03:17:57;;;;;;;5.30;2.90;;;;;;;21.64;47.97;100528.62;1726778;81;21051;-71
2022/08/24 03:20:24;;;;;;;5.75;3.20;;;;;;;21.62;48.08;100523.44;1738647;81;21099;-71
2022/08/24 03:22:51;;;;;;;6.85;2.92;;;;;;;21.60;47.94;100524.11;1721294;81;21109;-72
2022/08/24 03:25:18;;;;;;;9.18;3.22;;;;;;;21.58;47.88;100518.10;1729119;81;21858;-72
2022/08/24 03:27:45;;;;;;;6.25;3.22;;;;;;;21.58;47.73;100524.81;1721329;81;21043;-72
2022/08/24 03:30:13;;;;;;;5.47;3.27;;;;;;;21.60;47.70;100530.83;1732821;81;21078;-71
2022/08/24 03:32:41;;;;;;;31.62;3.37;;;;;;;21.61;47.65;100526.28;1720973;83;20964;-70
2022/08/24 03:35:09;;;;;;;6.65;3.40;;;;;;;21.60;47.64;100532.17;1722887;81;21039;-71
2022/08/24 03:37:36;;;;;;;7.87;3.30;;;;;;;21.61;47.54;100533.84;1720338;83;21969;-71
2022/08/24 03:40:05;;;;;;;6.10;3.37;;;;;;;21.63;47.57;100531.81;1722633;82;21004;-71
2022/08/24 03:42:32;;;;;;;9.15;3.33;;;;;;;21.63;47.48;100531.81;1707497;82;20969;-70
2022/08/24 03:44:59;;;;;;;4.78;3.17;;;;;;;21.62;47.49;100528.81;1707788;82;21118;-71
2022/08/24 03:47:26;;;;;;;5.40;3.12;;;;;;;21.63;47.39;100526.44;1683710;83;21071;-72
2022/08/24 03:49:52;;;;;;;6.87;3.22;;;;;;;21.63;47.39;100533.16;1715327;82;21926;-71
2022/08/24 03:52:19;;;;;;;4.67;2.90;;;;;;;21.64;47.38;100534.83;1694140;83;20973;-70
2022/08/24 03:54:45;;;;;;;6.22;3.12;;;;;;;21.66;47.34;100535.97;1643899;85;21040;-71
2022/08/24 03:57:13;;;;;;;4.22;2.72;;;;;;;21.66;47.40;100538.15;1689965;83;20989;-73
2022/08/24 03:59:40;;;;;;;4.80;3.02;;;;;;;21.69;47.53;100538.27;1704816;83;20949;-71
2022/08/24 04:02:08;;;;;;;9.75;3.12;;;;;;;21.70;47.56;100543.97;1734383;81;21776;-71
2022/08/24 04:04:34;;;;;;;6.78;3.17;;;;;;;21.70;47.52;100542.63;1749054;81;21063;-72
2022/08/24 04:07:03;;;;;;;10.55;3.10;;;;;;;21.71;47.45;100538.91;1736725;81;21000;-71
2022/08/24 04:09:30;;;;;;;7.50;3.10;;;;;;;21.71;47.55;100541.59;1729279;81;21066;-71
2022/08/24 04:11:56;;;;;;;10.18;3.42;;;;;;;21.73;47.74;100541.43;1729564;81;21541;-71
2022/08/24 04:14:24;;;;;;;8.60;3.15;;;;;;;21.74;47.86;100544.44;1726293;81;21505;-71
2022/08/24 04:16:53;;;;;;;8.35;3.10;;;;;;;21.74;47.94;100543.09;1710011;82;20995;-71
2022/08/24 04:19:22;;;;;;;11.45;3.10;;;;;;;21.75;48.08;100544.76;1694716;83;20971;-71
2022/08/24 04:21:48;;;;;;;8.13;3.33;;;;;;;21.75;47.93;100542.07;1688058;82;20980;-70
2022/08/24 04:24:16;;;;;;;9.95;3.20;;;;;;;21.75;47.94;100544.76;1710212;83;21024;-72
2022/08/24 04:26:42;;;;;;;9.23;3.40;;;;;;;21.76;48.13;100548.59;1726142;81;21802;-72
2022/08/24 04:29:10;;;;;;;6.85;3.08;;;;;;;21.77;48.11;100544.88;1743895;80;21075;-71
2022/08/24 04:31:40;;;;;;;12.13;3.20;;;;;;;21.78;47.97;100547.89;1713381;82;20992;-71
2022/08/24 04:34:07;;;;;;;6.72;3.12;;;;;;;21.81;48.21;100550.70;1710470;82;21013;-70
2022/08/24 04:36:34;;;;;;;7.15;2.90;;;;;;;21.83;48.31;100552.70;1692597;83;21521;-70
2022/08/24 04:39:01;;;;;;;8.70;3.05;;;;;;;21.85;48.46;100549.31;1687239;83;21842;-71
2022/08/24 04:41:46;;;;;;;8.88;2.90;;;;;;;21.88;48.39;100552.44;1688984;83;21040;-71
2022/08/24 04:44:14;;;;;;;9.65;3.20;;;;;;;21.91;48.60;100545.36;1681553;83;21507;-71
2022/08/24 04:46:41;;;;;;;7.80;3.08;;;;;;;21.92;48.62;100554.25;1687547;83;21058;-73
2022/08/24 04:49:08;;;;;;;9.70;3.55;;;;;;;21.95;48.65;100553.86;1676970;83;21051;-71
2022/08/24 04:51:35;;;;;;;10.00;3.50;;;;;;;21.98;48.88;100552.95;1681811;83;21620;-71
2022/08/24 04:54:01;;;;;;;23.85;15.65;;;;;;;22.03;49.02;100552.91;1685344;83;21072;-71
2022/08/24 04:56:29;;;;;;;10.35;6.30;;;;;;;22.08;48.92;100555.87;1693739;83;21060;-71
2022/08/24 04:58:56;;;;;;;16.62;8.50;;;;;;;22.12;48.86;100551.28;1696412;83;21099;-71
2022/08/24 05:01:25;;;;;;;15.35;9.45;;;;;;;22.15;48.67;100560.30;1699538;82;21024;-71
2022/08/24 05:03:53;;;;;;;6.03;4.35;;;;;;;22.20;48.45;100559.22;1693247;83;21894;-72
2022/08/24 05:06:23;;;;;;;7.72;3.65;;;;;;;22.22;48.02;100563.89;1701799;83;21558;-71
2022/08/24 05:08:50;;;;;;;7.72;3.35;;;;;;;22.24;48.26;100559.14;1721605;81;21126;-70
2022/08/24 05:11:20;;;;;;;6.17;3.30;;;;;;;22.28;48.39;100559.06;1697473;82;21051;-72
2022/08/24 05:13:47;;;;;;;8.45;3.22;;;;;;;22.33;48.39;100559.02;1704409;83;21051;-71
2022/08/24 05:16:16;;;;;;;8.60;3.50;;;;;;;22.38;48.30;100563.28;1704780;83;22158;-69
2022/08/24 05:18:43;;;;;;;8.25;3.50;;;;;;;22.43;48.44;100571.11;1694588;83;21052;-72
2022/08/24 05:21:12;;;;;;;19.62;4.10;;;;;;;22.51;48.32;100571.48;1684522;83;21066;-71
2022/08/24 05:23:39;;;;;;;6.47;3.50;;;;;;;22.57;48.25;100573.38;1692106;83;21074;-72
2022/08/24 05:26:15;;;;;;;13.18;3.70;;;;;;;22.62;47.84;100574.16;1685101;83;21051;-71
2022/08/24 05:28:43;;;;;;;9.70;3.42;;;;;;;22.65;47.86;100577.28;1682659;82;22574;-72
2022/08/24 05:31:14;;;;;;;9.33;3.50;;;;;;;22.72;47.86;100575.48;1692393;83;21047;-70
2022/08/24 05:33:41;;;;;;;6.65;3.33;;;;;;;22.79;47.74;100583.09;1682099;83;21104;-72
2022/08/24 05:36:16;;;;;;;8.08;3.90;;;;;;;22.84;47.66;100571.23;1681965;83;21080;-72
2022/08/24 05:38:43;;;;;;;8.95;3.77;;;;;;;22.93;47.58;100584.56;1676239;83;21067;-72
2022/08/24 05:41:10;;;;;;;9.45;3.52;;;;;;;22.96;47.26;100576.07;1681445;83;21999;-71
2022/08/24 05:43:37;;;;;;;12.85;3.65;;;;;;;23.00;47.27;100582.75;1680440;85;21060;-70
2022/08/24 05:46:04;;;;;;;96.15;86.35;;;;;;;23.06;47.29;100583.28;1681072;83;21103;-69
2022/08/24 05:48:31;;;;;;;22.90;16.55;;;;;;;23.12;47.24;100584.68;1657736;86;21854;-71
2022/08/24 05:51:03;;;;;;;10.48;6.35;;;;;;;23.20;47.04;100585.03;1649623;83;21091;-71
2022/08/24 05:53:32;;;;;;;7.58;4.37;;;;;;;23.26;47.00;100584.73;1681721;83;21753;-69
2022/08/24 05:56:04;;;;;;;11.25;4.30;;;;;;;23.32;47.34;100587.48;1681934;83;21001;-72
2022/08/24 05:58:31;;;;;;;8.40;3.30;;;;;;;23.38;47.07;100583.99;1685660;84;21096;-71
2022/08/24 06:01:12;;;;;;;5.87;3.75;;;;;;;23.48;47.19;100589.53;1683675;83;21080;-72
2022/08/24 06:03:39;;;;;;;7.20;3.90;;;;;;;23.52;46.96;100591.61;1680590;83;21052;-71
2022/08/24 06:06:07;;;;;;;12.03;4.55;;;;;;;23.60;46.90;100589.30;1682352;83;22463;-69
2022/08/24 06:08:40;;;;;;;9.25;4.25;;;;;;;23.68;46.56;100598.56;1698236;83;21047;-69
2022/08/24 06:11:06;;;;;;;14.03;4.10;;;;;;;23.75;46.06;100592.69;1706943;83;21576;-70
2022/08/24 06:13:33;;;;;;;14.03;4.50;;;;;;;23.81;45.87;100587.80;1687600;83;21397;-69
2022/08/24 06:16:06;;;;;;;15.98;4.70;;;;;;;23.87;45.79;100599.66;1691623;83;20890;-68
2022/08/24 06:18:32;;;;;;;12.73;4.33;;;;;;;23.93;45.40;100599.69;1683636;83;22573;-70
2022/08/24 06:21:09;;;;;;;15.72;4.55;;;;;;;23.98;45.51;100598.55;1690550;83;20961;-73
2022/08/24 06:23:37;;;;;;;13.58;4.42;;;;;;;24.06;45.77;100601.58;1687361;83;21009;-74
2022/08/24 06:28:51;;;;;;;25.97;4.90;;;;;;;24.21;44.60;100600.86;1664725;83;21041;-69
2022/08/24 06:31:18;;;;;;;26.95;5.30;;;;;;;24.24;44.59;100600.47;1689701;83;21952;-69
2022/08/24 06:33:46;;;;;;;17.10;5.03;;;;;;;24.28;45.06;100598.19;1684687;83;21370;-73
2022/08/24 06:36:13;;;;;;;17.10;4.92;;;;;;;24.37;45.22;100599.68;1686018;83;21032;-70
2022/08/24 06:38:40;;;;;;;15.28;4.45;;;;;;;24.47;44.76;100596.57;1717887;81;21370;-70
2022/08/24 06:41:07;;;;;;;13.55;4.37;;;;;;;24.54;44.81;100596.06;1718127;83;21498;-68
2022/08/24 06:43:35;;;;;;;15.35;4.33;;;;;;;24.64;44.47;100601.05;1736604;81;22528;-74
2022/08/24 06:46:04;;;;;;;26.05;5.28;;;;;;;24.70;44.63;100602.89;1691324;83;20975;-71
2022/08/24 06:48:33;;;;;;;16.70;4.40;;;;;;;24.78;44.55;100604.04;1739699;81;20969;-69
2022/08/24 06:50:59;;;;;;;18.42;5.47;;;;;;;24.85;44.31;100598.11;1698529;82;21110;-71
2022/08/24 06:53:26;;;;;;;18.23;4.97;;;;;;;24.94;44.36;100606.84;1678556;84;21098;-71
2022/08/24 06:55:56;;;;;;;26.65;4.50;;;;;;;25.01;44.20;100605.80;1730486;82;21759;-72
2022/08/24 06:58:30;;;;;;;14.83;4.22;;;;;;;25.11;44.08;100608.09;1726653;83;20957;-71
2022/08/24 07:00:56;;;;;;;16.67;4.35;;;;;;;25.22;44.24;100598.50;1725026;81;21012;-71
2022/08/24 07:03:24;;;;;;;16.00;4.50;;;;;;;25.32;44.29;100602.94;1726388;82;20968;-70
2022/08/24 07:05:58;;;;;;;17.82;4.40;;;;;;;25.44;44.41;100609.34;1724360;83;21539;-71
2022/08/24 07:08:32;;;;;;;17.12;4.53;;;;;;;25.53;43.72;100598.59;1711660;82;22285;-72
2022/08/24 07:10:59;;;;;;;15.15;4.33;;;;;;;25.61;43.52;100597.00;1732058;82;21062;-72
2022/08/24 07:13:29;;;;;;;19.27;4.00;;;;;;;25.70;43.22;100597.63;1729387;82;21044;-72
2022/08/24 07:15:56;;;;;;;10.35;4.20;;;;;;;25.79;43.12;100591.45;1728361;81;20989;-71
2022/08/24 07:18:23;;;;;;;14.43;4.40;;;;;;;25.88;42.58;100590.15;1713952;82;20965;-73
2022/08/24 07:20:50;;;;;;;15.72;4.28;;;;;;;25.94;42.76;100594.15;1737251;81;22317;-72
2022/08/24 07:23:28;;;;;;;16.02;4.35;;;;;;;26.04;42.22;100589.61;1756216;80;20998;-71
2022/08/24 07:25:54;;;;;;;26.90;4.60;;;;;;;26.07;41.73;100593.78;1747681;81;21457;-71
2022/08/24 07:28:21;;;;;;;15.85;4.03;;;;;;;26.05;41.89;100592.63;1732051;81;21433;-70
2022/08/24 07:30:48;;;;;;;15.70;4.10;;;;;;;26.10;41.93;100592.81;1732113;82;21496;-71
2022/08/24 07:33:15;;;;;;;16.87;3.90;;;;;;;26.14;40.68;100592.67;1731187;82;21840;-71
2022/08/24 07:35:42;;;;;;;16.93;4.97;;;;;;;26.17;40.72;100592.78;1726330;83;20948;-71
2022/08/24 07:38:10;;;;;;;15.45;5.42;;;;;;;26.22;41.02;100590.23;1726450;83;21461;-71
2022/08/24 07:40:38;;;;;;;11.57;4.42;;;;;;;26.29;41.22;100593.73;1726289;82;20996;-70
2022/08/24 07:43:04;;;;;;;16.60;4.40;;;;;;;26.40;41.68;100594.40;1687070;84;21050;-71
2022/08/24 07:45:33;;;;;;;18.80;4.20;;;;;;;26.53;41.07;100590.22;1702877;84;22644;-71
2022/08/24 07:48:01;;;;;;;19.70;4.35;;;;;;;26.62;40.62;100590.77;1702950;84;21409;-71
2022/08/24 07:50:36;;;;;;;17.45;3.80;;;;;;;26.71;40.46;100598.09;1702255;84;21448;-71
2022/08/24 07:53:02;;;;;;;18.62;3.85;;;;;;;26.75;40.22;100593.39;1702904;83;20963;-72
2022/08/24 07:55:29;;;;;;;15.10;3.60;;;;;;;26.81;40.29;100598.42;1726950;82;21039;-71
2022/08/24 07:57:55;;;;;;;13.35;3.60;;;;;;;26.88;39.54;100598.37;1730826;81;22915;-70
2022/08/24 08:00:23;;;;;;;20.77;4.00;;;;;;;26.95;38.32;100601.33;1731399;82;21398;-71
2022/08/24 08:02:51;;;;;;;16.80;4.00;;;;;;;27.00;37.71;100596.57;1702093;83;21577;-71
2022/08/24 08:05:21;;;;;;;19.10;3.90;;;;;;;27.03;37.45;100590.23;1732684;82;20998;-71
2022/08/24 08:07:50;;;;;;;13.45;3.70;;;;;;;27.09;36.67;100583.88;1732529;82;21006;-71
2022/08/24 08:10:17;;;;;;;17.00;3.47;;;;;;;27.16;36.46;100598.73;1732439;82;21808;-71
2022/08/24 08:12:44;;;;;;;13.35;3.50;;;;;;;27.21;36.46;100596.16;1750745;81;20956;-71
2022/08/24 08:15:10;;;;;;;17.65;3.65;;;;;;;27.30;36.75;100593.45;1740852;81;20940;-70
2022/08/24 08:17:39;;;;;;;12.50;3.60;;;;;;;27.44;36.78;100600.92;1736447;81;21002;-69
2022/08/24 08:20:08;;;;;;;17.00;3.85;;;;;;;27.52;36.33;100607.41;1732515;82;21043;-71
2022/08/24 08:25:38;;;;;;;14.35;3.42;;;;;;;27.59;37.67;100602.70;1726192;82;27912;-70
2022/08/24 08:28:07;;;;;;;15.48;3.40;;;;;;;27.71;38.16;100597.39;1725823;81;20992;-70
2022/08/24 08:30:34;;;;;;;12.05;3.20;;;;;;;27.75;37.59;100598.58;1725612;82;21038;-71
2022/08/24 08:33:02;;;;;;;12.10;2.80;;;;;;;27.82;36.65;100600.68;1726641;82;21087;-72
2022/08/24 08:35:29;;;;;;;16.95;3.30;;;;;;;27.86;35.89;100596.97;1726175;82;21926;-71
2022/08/24 08:37:56;;;;;;;17.48;3.70;;;;;;;27.93;35.58;100603.14;1726541;83;21027;-70
2022/08/24 08:40:47;;;;;;;16.75;3.40;;;;;;;27.97;34.27;100603.49;1719383;82;20972;-71
2022/08/24 08:43:42;;;;;;;11.60;3.65;;;;;;;27.98;33.84;100603.26;1713108;83;21094;-71
2022/08/24 08:46:35;;;;;;;18.95;3.05;;;;;;;28.07;34.17;100601.05;1668641;86;21032;-71
2022/08/24 08:49:46;;;;;;;11.40;3.40;;;;;;;28.17;33.95;100601.31;1705375;83;21915;-70
2022/08/24 08:52:56;;;;;;;12.47;3.20;;;;;;;28.34;34.75;100605.06;1632216;84;20968;-71
2022/08/24 08:55:48;;;;;;;8.70;3.22;;;;;;;28.57;34.21;100606.15;1698113;83;21000;-70
2022/08/24 08:58:47;;;;;;;11.03;3.00;;;;;;;28.79;33.30;100609.44;1718832;83;20991;-71
2022/08/24 09:01:25;;;;;;;11.68;3.02;;;;;;;28.93;32.22;100604.61;1719382;83;20960;-71
2022/08/24 09:04:41;;;;;;;17.17;4.03;;;;;;;29.06;32.18;100600.84;1719005;82;21490;-71
2022/08/24 09:07:27;;;;;;;13.28;4.25;;;;;;;29.20;32.56;100596.78;1718730;82;21489;-70
2022/08/24 09:10:24;;;;;;;15.18;3.72;;;;;;;29.39;31.02;100605.63;1718710;83;20987;-70
2022/08/24 09:13:05;;;;;;;8.93;2.90;;;;;;;29.45;30.20;100592.96;1710487;83;21062;-71
2022/08/24 09:16:00;;;;;;;11.48;3.02;;;;;;;29.55;30.12;100594.56;1717688;82;20952;-71
2022/08/24 09:18:43;;;;;;;7.62;2.72;;;;;;;29.65;29.71;100592.04;1749327;80;22463;-70
2022/08/24 09:21:42;;;;;;;10.45;2.87;;;;;;;29.76;28.98;100591.70;1700414;83;21011;-71
2022/08/24 09:24:37;;;;;;;9.28;2.45;;;;;;;29.82;28.36;100590.20;1738087;81;21027;-71
2022/08/24 09:27:41;;;;;;;11.28;3.00;;;;;;;29.94;28.90;100598.31;1718660;82;21084;-71
2022/08/24 09:30:13;;;;;;;16.05;3.10;;;;;;;30.06;27.63;100583.27;1713269;83;21008;-70
2022/08/24 09:33:09;;;;;;;13.60;2.62;;;;;;;30.11;27.77;100585.59;1713431;83;21907;-70
2022/08/24 09:35:51;;;;;;;9.10;2.87;;;;;;;30.26;28.18;100582.30;1677191;83;21047;-71
2022/08/24 09:38:25;;;;;;;13.53;2.75;;;;;;;30.26;28.18;100582.30;1668959;86;21149;-71
2022/08/24 09:41:08;;;;;;;8.20;2.62;;;;;;;30.48;28.87;100583.73;1718259;82;21011;-70
2022/08/24 09:44:03;;;;;;;10.00;2.85;;;;;;;30.64;28.74;100583.45;1684369;84;21488;-71
2022/08/24 09:47:01;;;;;;;14.30;3.25;;;;;;;30.64;28.74;100583.45;1697506;83;21478;-71
2022/08/24 09:50:04;;;;;;;12.63;3.17;;;;;;;30.86;28.62;100584.89;1704516;81;21521;-71
2022/08/24 09:53:28;;;;;;;10.35;2.77;;;;;;;31.04;28.92;100581.88;1726068;83;20943;-72
2022/08/24 09:56:24;;;;;;;;;;;;;;;31.24;28.48;100583.55;1735462;81;21054;-71
2022/08/24 09:59:05;;;;;;;14.25;3.10;;;;;;;31.34;28.71;100591.04;1723493;81;20146;-71
2022/08/24 10:02:15;;;;;;;9.43;3.12;;;;;;;31.46;28.96;100592.27;1709591;83;22019;-71
2022/08/24 10:05:07;;;;;;;12.47;2.95;;;;;;;31.59;28.66;100586.44;1721726;81;21004;-71
2022/08/24 10:08:20;;;;;;;7.83;2.70;;;;;;;31.63;28.07;100576.64;1725834;81;21078;-71
2022/08/24 10:11:26;;;;;;;10.13;3.47;;;;;;;31.63;27.84;100580.73;1717345;82;21125;-71
2022/08/24 10:14:15;;;;;;;10.03;3.10;;;;;;;31.63;28.11;100579.37;1721046;82;21024;-71
2022/08/24 10:17:13;;;;;;;8.50;2.80;;;;;;;31.68;28.57;100577.26;1702200;83;22862;-72
2022/08/24 10:19:48;;;;;;;8.80;2.90;;;;;;;31.87;28.02;100576.68;1721861;81;21077;-71
2022/08/24 10:22:38;;;;;;;9.40;2.60;;;;;;;32.09;27.85;100575.24;1721707;81;21485;-71
2022/08/24 10:25:29;;;;;;;7.53;2.85;;;;;;;32.23;28.56;100572.07;1737023;81;21423;-71
2022/08/24 10:28:42;;;;;;;13.80;2.72;;;;;;;32.44;27.70;100580.23;1710291;81;21030;-71
2022/08/24 10:31:13;;;;;;;6.78;2.62;;;;;;;32.61;27.81;100586.08;1735227;81;22193;-71
2022/08/24 10:33:56;;;;;;;9.35;2.62;;;;;;;32.71;26.72;100575.20;1734192;82;21025;-72
2022/08/24 10:36:57;;;;;;;7.10;3.17;;;;;;;32.73;27.57;100582.09;1703599;82;20959;-71
2022/08/24 10:39:55;;;;;;;11.03;2.92;;;;;;;32.88;27.78;100573.17;1753288;80;21012;-70
2022/08/24 10:43:38;;;;;;;9.20;3.10;;;;;;;33.07;27.73;100575.46;1725405;83;20944;-70
2022/08/24 10:45:49;;;;;;;9.95;3.20;;;;;;;33.30;28.35;100575.04;1690105;81;22548;-71
2022/08/24 10:48:34;;;;;;;11.75;2.95;;;;;;;33.51;27.13;100578.16;1733599;82;21157;-71
2022/08/24 10:51:35;;;;;;;11.70;2.70;;;;;;;33.56;26.08;100570.48;1732598;81;21435;-71
2022/08/24 10:54:03;;;;;;;8.88;2.90;;;;;;;33.64;26.77;100565.03;1737309;81;20971;-72
2022/08/24 10:56:41;;;;;;;11.40;2.72;;;;;;;33.89;26.63;100569.25;1724832;83;20967;-72
2022/08/24 10:59:19;;;;;;;10.40;2.70;;;;;;;34.01;25.29;100571.17;1743938;81;21790;-71
2022/08/24 11:02:09;;;;;;;7.83;2.77;;;;;;;34.07;24.83;100563.79;1720611;83;21011;-71
2022/08/24 11:04:38;;;;;;;5.97;2.60;;;;;;;34.11;25.05;100562.13;1736120;81;21067;-72
2022/08/24 11:07:20;;;;;;;9.10;2.95;;;;;;;34.18;24.77;100568.73;1723319;83;21079;-70
2022/08/24 11:09:54;;;;;;;8.45;2.50;;;;;;;34.20;25.06;100567.34;1733880;81;21004;-71
2022/08/24 11:12:38;;;;;;;10.65;2.92;;;;;;;34.28;24.97;100564.61;1730062;81;22480;-71
2022/08/24 11:15:18;;;;;;;10.55;3.22;;;;;;;34.29;24.23;100559.40;1702595;81;21008;-72
2022/08/24 11:17:58;;;;;;;7.42;2.75;;;;;;;34.29;25.79;100557.48;1697670;84;21035;-71
2022/08/24 11:20:37;;;;;;;10.78;3.00;;;;;;;34.39;24.54;100555.31;1715012;81;21099;-71
2022/08/24 11:23:07;;;;;;;7.62;2.67;;;;;;;34.47;24.48;100554.77;1721602;81;20976;-72
2022/08/24 11:25:38;;;;;;;9.98;3.08;;;;;;;34.55;25.55;100545.13;1720762;81;21885;-71
2022/08/24 11:28:18;;;;;;;14.07;2.83;;;;;;;34.64;25.16;100549.77;1721578;81;21019;-72
2022/08/24 11:30:45;;;;;;;15.05;2.77;;;;;;;34.71;24.96;100554.98;1718779;81;21059;-71
2022/08/24 11:33:34;;;;;;;8.78;2.70;;;;;;;34.73;24.66;100549.48;1721022;83;21016;-71
2022/08/24 11:36:00;;;;;;;6.80;2.60;;;;;;;34.64;24.50;100547.03;1721838;81;21015;-71
2022/08/24 11:38:31;;;;;;;6.05;2.90;;;;;;;34.67;24.73;100539.64;1721280;81;21802;-72
2022/08/24 11:41:24;;;;;;;6.67;2.67;;;;;;;34.75;25.41;100535.51;1743490;81;21008;-72
2022/08/24 11:44:06;;;;;;;;;;;;;;;34.92;25.60;100542.05;1724366;81;21000;-73
2022/08/24 11:46:45;;;;;;;5.70;2.30;;;;;;;35.08;24.41;100528.55;1755788;81;20403;-71
2022/08/24 11:49:21;;;;;;;6.83;2.35;;;;;;;34.90;23.93;100534.11;1697875;84;21003;-71
2022/08/24 11:52:04;;;;;;;7.28;2.40;;;;;;;34.74;24.52;100525.61;1697998;83;21787;-71
2022/08/24 11:54:55;;;;;;;7.40;2.60;;;;;;;34.69;24.48;100527.01;1722050;81;20960;-72
2022/08/24 11:57:47;;;;;;;5.45;2.45;;;;;;;34.83;25.01;100527.23;1710460;82;21077;-71
2022/08/24 12:00:22;;;;;;;15.10;2.75;;;;;;;35.16;24.21;100525.78;1722530;82;21000;-72